createdAt,value
2023-05-09T00:00:12.050Z,156989.81
2023-05-09T00:03:02.567Z,156980.56
2023-05-09T00:05:30.635Z,156964.59
2023-05-09T00:07:58.382Z,156948.72
2023-05-09T00:10:27.655Z,156926.19
2023-05-09T00:12:56.101Z,156910.28
2023-05-09T00:15:26.255Z,156891.72
2023-05-09T00:17:54.758Z,156879.78
2023-05-09T00:20:23.839Z,156861.25
2023-05-09T00:22:51.858Z,156886.41
2023-05-09T00:25:20.133Z,156877.16
2023-05-09T00:27:47.495Z,156889.09
2023-05-09T00:30:15.637Z,156886.41
2023-05-09T00:32:43.406Z,156891.72
2023-05-09T00:35:11.444Z,156873.16
2023-05-09T00:37:38.960Z,156885.09
2023-05-09T00:40:07.779Z,156873.16
2023-05-09T00:42:36.278Z,156846.69
2023-05-09T00:45:04.780Z,156826.81
2023-05-09T00:47:34.828Z,156814.84
2023-05-09T00:50:03.134Z,156804.22
2023-05-09T00:52:31.415Z,156797.66
2023-05-09T00:55:00.754Z,156796.28
2023-05-09T00:57:29.203Z,156793.66
2023-05-09T00:59:57.995Z,156798.97
2023-05-09T01:02:26.415Z,156787.03
2023-05-09T01:04:55.178Z,156788.34
2023-05-09T01:07:39.585Z,156781.72
2023-05-09T01:10:45.897Z,156772.47
2023-05-09T01:13:24.847Z,156767.16
2023-05-09T01:15:56.095Z,156771.16
2023-05-09T01:18:35.440Z,156765.81
2023-05-09T01:21:08.958Z,156753.88
2023-05-09T01:23:39.806Z,156749.94
2023-05-09T01:26:30.440Z,156748.63
2023-05-09T01:29:16.880Z,156745.94
2023-05-09T01:31:45.856Z,156743.31
2023-05-09T01:34:16.165Z,156736.69
2023-05-09T01:36:45.768Z,156732.69
2023-05-09T01:39:14.632Z,156732.69
2023-05-09T01:41:42.571Z,156724.75
2023-05-09T01:44:13.223Z,156726.06
2023-05-09T01:46:43.561Z,156715.50
2023-05-09T01:49:11.789Z,156700.94
2023-05-09T01:51:43.820Z,156687.69
2023-05-09T01:54:13.245Z,156681.06
2023-05-09T01:56:42.801Z,156657.19
2023-05-09T01:59:16.587Z,156670.44
2023-05-09T02:01:46.154Z,156666.50
2023-05-09T02:04:16.096Z,156662.50
2023-05-09T02:06:45.410Z,156651.91
2023-05-09T02:09:13.367Z,156643.97
2023-05-09T02:11:43.866Z,156632.03
2023-05-09T02:14:12.035Z,156628.06
2023-05-09T02:16:41.427Z,156618.78
2023-05-09T02:19:09.950Z,156600.25
2023-05-09T02:21:38.568Z,156591.00
2023-05-09T02:24:07.260Z,156600.25
2023-05-09T02:26:37.136Z,156605.56
2023-05-09T02:29:07.563Z,156601.59
2023-05-09T02:31:36.881Z,156608.19
2023-05-09T02:34:05.869Z,156597.63
2023-05-09T02:36:36.673Z,156597.63
2023-05-09T02:39:05.047Z,156602.91
2023-05-09T02:41:33.257Z,156601.59
2023-05-09T02:44:01.656Z,156587.00
2023-05-09T02:46:31.689Z,156581.72
2023-05-09T02:49:01.062Z,156587.00
2023-05-09T02:51:29.842Z,156565.81
2023-05-09T02:53:58.333Z,156571.13
2023-05-09T02:56:27.022Z,156560.56
2023-05-09T02:58:55.703Z,156557.88
2023-05-09T03:01:24.526Z,156548.63
2023-05-09T03:03:52.729Z,156552.56
2023-05-09T03:06:22.648Z,156560.56
2023-05-09T03:08:50.613Z,156563.19
2023-05-09T03:11:19.194Z,156565.81
2023-05-09T03:13:48.863Z,156557.88
2023-05-09T03:16:18.614Z,156572.44
2023-05-09T03:18:47.091Z,156567.16
2023-05-09T03:21:15.061Z,156576.44
2023-05-09T03:23:43.086Z,156579.06
2023-05-09T03:26:11.395Z,156587.00
2023-05-09T03:28:39.713Z,156584.38
2023-05-09T03:31:08.413Z,156587.00
2023-05-09T03:33:36.836Z,156584.38
2023-05-09T03:36:06.062Z,156588.34
2023-05-09T03:38:33.998Z,156592.31
2023-05-09T03:41:02.579Z,156626.75
2023-05-09T03:43:31.009Z,156621.44
2023-05-09T03:45:59.427Z,156665.16
2023-05-09T03:48:28.261Z,156687.69
2023-05-09T03:50:57.409Z,156695.63
2023-05-09T03:53:28.019Z,156711.50
2023-05-09T03:55:56.924Z,156743.31
2023-05-09T03:58:27.350Z,156784.41
2023-05-09T04:00:56.592Z,156806.91
2023-05-09T04:03:27.378Z,156848.00
2023-05-09T04:05:56.544Z,156893.03
2023-05-09T04:08:34.073Z,156954.03
2023-05-09T04:11:05.047Z,157007.03
2023-05-09T04:13:34.520Z,157056.09
2023-05-09T04:16:07.904Z,157109.16
2023-05-09T04:18:37.108Z,157148.97
2023-05-09T04:21:05.239Z,157212.63
2023-05-09T04:23:33.354Z,157260.41
2023-05-09T04:26:01.397Z,157316.16
2023-05-09T04:28:29.589Z,157375.84
2023-05-09T04:30:59.007Z,157432.91
2023-05-09T04:33:26.639Z,157488.69
2023-05-09T04:36:01.631Z,157539.13
2023-05-09T04:38:29.595Z,157601.56
2023-05-09T04:40:58.958Z,157661.34
2023-05-09T04:43:28.731Z,157725.13
2023-05-09T04:45:58.682Z,157790.22
2023-05-09T04:48:26.509Z,157848.72
2023-05-09T04:50:55.081Z,157915.16
2023-05-09T04:53:23.483Z,157978.97
2023-05-09T04:55:54.117Z,158033.50
2023-05-09T04:58:23.024Z,158102.66
2023-05-09T05:00:51.839Z,158202.47
2023-05-09T05:03:20.493Z,158322.25
2023-05-09T05:05:50.323Z,158395.44
2023-05-09T05:08:18.829Z,158497.97
2023-05-09T05:10:49.766Z,158596.50
2023-05-09T05:13:19.133Z,158729.75
2023-05-09T05:15:52.006Z,158843.06
2023-05-09T05:18:21.896Z,158951.00
2023-05-09T05:20:51.332Z,159048.34
2023-05-09T05:23:20.087Z,159199.13
2023-05-09T05:25:51.721Z,159300.53
2023-05-09T05:28:20.818Z,159400.63
2023-05-09T05:30:50.055Z,159480.75
2023-05-09T05:33:18.743Z,159514.09
2023-05-09T05:35:47.591Z,159628.97
2023-05-09T05:38:16.219Z,159757.25
2023-05-09T05:40:49.776Z,159882.88
2023-05-09T05:43:18.378Z,159959.03
2023-05-09T05:45:46.948Z,160019.22
2023-05-09T05:48:19.172Z,160103.50
2023-05-09T05:50:49.019Z,160163.66
2023-05-09T05:53:21.074Z,160233.22
2023-05-09T05:55:53.660Z,160294.75
2023-05-09T05:58:23.089Z,160375.00
2023-05-09T06:00:53.756Z,160392.50
2023-05-09T06:03:24.555Z,160411.25
2023-05-09T06:06:04.063Z,160468.78
2023-05-09T06:08:32.826Z,160570.50
2023-05-09T06:11:02.004Z,160529.00
2023-05-09T06:13:29.861Z,160495.50
2023-05-09T06:16:18.513Z,160454.06
2023-05-09T06:18:50.297Z,160355.00
2023-05-09T06:21:18.548Z,160377.72
2023-05-09T06:24:05.036Z,160365.66
2023-05-09T06:26:36.811Z,160372.34
2023-05-09T06:29:06.553Z,160356.31
2023-05-09T06:31:39.277Z,160443.34
2023-05-09T06:34:07.755Z,160534.34
2023-05-09T06:36:36.702Z,160579.84
2023-05-09T06:39:05.047Z,160590.59
2023-05-09T06:41:35.101Z,160630.75
2023-05-09T06:44:03.091Z,160695.09
2023-05-09T06:46:31.837Z,160766.06
2023-05-09T06:49:02.697Z,160826.31
2023-05-09T06:51:31.590Z,160885.28
2023-05-09T06:53:59.902Z,160866.50
2023-05-09T06:56:28.560Z,160842.44
2023-05-09T06:58:56.708Z,160824.97
2023-05-09T07:01:25.424Z,160755.31
2023-05-09T07:03:53.468Z,160751.34
2023-05-09T07:06:22.236Z,160657.50
2023-05-09T07:09:17.915Z,160546.41
2023-05-09T07:11:46.616Z,160628.06
2023-05-09T07:14:14.832Z,160729.91
2023-05-09T07:16:43.338Z,160788.81
2023-05-09T07:19:11.081Z,160732.56
2023-05-09T07:21:39.574Z,160711.13
2023-05-09T07:24:09.146Z,160732.56
2023-05-09T07:26:38.191Z,160807.59
2023-05-09T07:29:06.517Z,160849.06
2023-05-09T07:31:37.219Z,160834.34
2023-05-09T07:34:06.088Z,160849.06
2023-05-09T07:36:35.612Z,160853.13
2023-05-09T07:39:05.396Z,160834.34
2023-05-09T07:41:34.033Z,160910.72
2023-05-09T07:44:02.306Z,160910.72
2023-05-09T07:46:30.731Z,160803.56
2023-05-09T07:48:59.121Z,160783.44
2023-05-09T07:51:27.922Z,160772.75
2023-05-09T07:53:57.304Z,160662.88
2023-05-09T07:56:27.118Z,160707.09
2023-05-09T07:58:55.805Z,160700.41
2023-05-09T08:01:24.415Z,160676.28
2023-05-09T08:03:52.405Z,160692.38
2023-05-09T08:06:21.059Z,160724.53
2023-05-09T08:08:49.675Z,160762.03
2023-05-09T08:11:18.394Z,160847.75
2023-05-09T08:13:47.338Z,160926.78
2023-05-09T08:16:17.851Z,160973.75
2023-05-09T08:18:46.974Z,161003.22
2023-05-09T08:21:15.727Z,160995.19
2023-05-09T08:23:43.494Z,160956.31
2023-05-09T08:26:11.607Z,160925.44
2023-05-09T08:28:39.791Z,160912.03
2023-05-09T08:31:07.805Z,160874.53
2023-05-09T08:33:36.247Z,160806.22
2023-05-09T08:36:05.513Z,160814.28
2023-05-09T08:38:33.430Z,160803.56
2023-05-09T08:41:02.453Z,160859.81
2023-05-09T08:43:31.086Z,160945.56
2023-05-09T08:46:00.948Z,160956.31
2023-05-09T08:48:29.740Z,161027.38
2023-05-09T08:50:58.368Z,161076.97
2023-05-09T08:53:27.693Z,160963.00
2023-05-09T08:55:56.694Z,160893.31
2023-05-09T08:58:24.825Z,160806.22
2023-05-09T09:00:54.423Z,160851.78
2023-05-09T09:03:24.720Z,160824.97
2023-05-09T09:05:55.025Z,160780.78
2023-05-09T09:08:23.631Z,160727.19
2023-05-09T09:10:52.521Z,160760.69
2023-05-09T09:13:21.807Z,160824.97
2023-05-09T09:15:52.289Z,160794.19
2023-05-09T09:18:24.663Z,160764.72
2023-05-09T09:20:58.640Z,160748.63
2023-05-09T09:23:27.537Z,160697.75
2023-05-09T09:26:05.236Z,160721.81
2023-05-09T09:28:34.964Z,160776.75
2023-05-09T09:31:29.074Z,160778.09
2023-05-09T09:34:01.835Z,160745.97
2023-05-09T09:36:32.929Z,160767.41
2023-05-09T09:39:02.146Z,160812.91
2023-05-09T09:41:39.316Z,160883.91
2023-05-09T09:44:09.900Z,160866.50
2023-05-09T09:46:51.124Z,160904.00
2023-05-09T09:49:21.730Z,160948.22
2023-05-09T09:51:52.723Z,160916.09
2023-05-09T09:54:21.481Z,160934.88
2023-05-09T09:56:53.598Z,160952.25
2023-05-09T09:59:25.902Z,160981.78
2023-05-09T10:01:54.451Z,160967.00
2023-05-09T10:04:23.243Z,160940.19
2023-05-09T10:06:56.833Z,160843.75
2023-05-09T10:09:25.826Z,160824.97
2023-05-09T10:11:55.883Z,160818.28
2023-05-09T10:14:26.160Z,160861.16
2023-05-09T10:16:58.103Z,160869.19
2023-05-09T10:19:27.900Z,160845.09
2023-05-09T10:21:59.149Z,160877.22
2023-05-09T10:24:29.731Z,160917.41
2023-05-09T10:27:07.277Z,160934.88
2023-05-09T10:29:37.026Z,160954.91
2023-05-09T10:32:24.414Z,160842.44
2023-05-09T10:34:55.442Z,160829.03
2023-05-09T10:37:24.186Z,160861.16
2023-05-09T10:39:54.012Z,160878.59
2023-05-09T10:42:25.650Z,160875.88
2023-05-09T10:44:54.319Z,160893.31
2023-05-09T10:47:22.933Z,160894.66
2023-05-09T10:49:50.781Z,160869.19
2023-05-09T10:52:23.204Z,160910.72
2023-05-09T10:55:02.663Z,160938.84
2023-05-09T10:57:32.925Z,160892.00
2023-05-09T11:00:02.053Z,160850.44
2023-05-09T11:02:33.021Z,160855.78
2023-05-09T11:05:22.106Z,160869.19
2023-05-09T11:08:29.245Z,160820.94
2023-05-09T11:11:03.352Z,160795.53
2023-05-09T11:13:33.597Z,160799.50
2023-05-09T11:16:02.067Z,160834.34
2023-05-09T11:18:32.682Z,160835.72
2023-05-09T11:21:08.516Z,160820.94
2023-05-09T11:23:39.177Z,160863.88
2023-05-09T11:26:08.785Z,160882.59
2023-05-09T11:28:38.324Z,160837.06
2023-05-09T11:31:24.805Z,160854.44
2023-05-09T11:34:03.319Z,160901.34
2023-05-09T11:36:35.911Z,160936.19
2023-05-09T11:39:10.921Z,160855.78
2023-05-09T11:41:41.044Z,160833.00
2023-05-09T11:44:21.577Z,160800.91
2023-05-09T11:46:50.229Z,160791.47
2023-05-09T11:49:19.989Z,160794.19
2023-05-09T11:51:47.765Z,160780.78
2023-05-09T11:54:16.001Z,160764.72
2023-05-09T11:56:44.085Z,160780.78
2023-05-09T11:59:14.962Z,160834.34
2023-05-09T12:01:43.101Z,160901.34
2023-05-09T12:04:12.358Z,160952.25
2023-05-09T12:06:40.761Z,160964.34
2023-05-09T12:09:10.693Z,161043.44
2023-05-09T12:11:39.280Z,161066.22
2023-05-09T12:14:07.938Z,161086.34
2023-05-09T12:16:36.241Z,161064.88
2023-05-09T12:19:05.255Z,161051.47
2023-05-09T12:21:34.107Z,160963.00
2023-05-09T12:24:02.824Z,160988.50
2023-05-09T12:26:31.274Z,160968.34
2023-05-09T12:29:00.155Z,160988.50
2023-05-09T12:31:28.768Z,160992.53
2023-05-09T12:33:57.720Z,161031.38
2023-05-09T12:36:27.031Z,161001.91
2023-05-09T12:38:56.805Z,160991.19
2023-05-09T12:43:56.902Z,160963.00
2023-05-09T12:46:26.284Z,160999.22
2023-05-09T12:48:55.154Z,160997.91
2023-05-09T12:51:24.003Z,160973.75
2023-05-09T12:53:52.783Z,160968.34
2023-05-09T12:56:23.683Z,160950.94
2023-05-09T12:58:54.041Z,160937.53
2023-05-09T13:01:27.902Z,160956.31
2023-05-09T13:04:04.203Z,160963.00
2023-05-09T13:06:36.619Z,160930.81
2023-05-09T13:09:06.703Z,160887.94
2023-05-09T13:11:36.037Z,160950.94
2023-05-09T13:14:04.762Z,160952.25
2023-05-09T13:16:32.758Z,160940.19
2023-05-09T13:19:02.059Z,160960.28
2023-05-09T13:21:30.136Z,160963.00
2023-05-09T13:23:58.669Z,160961.63
2023-05-09T13:26:28.306Z,160944.22
2023-05-09T13:28:57.151Z,160969.75
2023-05-09T13:31:25.751Z,160937.53
2023-05-09T13:33:54.463Z,160985.81
2023-05-09T13:36:23.410Z,160956.31
2023-05-09T13:38:51.873Z,160929.50
2023-05-09T13:41:23.160Z,160945.56
2023-05-09T13:43:52.191Z,160946.88
2023-05-09T13:46:20.378Z,160952.25
2023-05-09T13:48:52.573Z,160972.41
2023-05-09T13:51:22.150Z,160971.09
2023-05-09T13:53:51.526Z,160987.16
2023-05-09T13:56:20.445Z,161003.22
2023-05-09T13:58:48.849Z,160969.75
2023-05-09T14:01:16.736Z,160928.16
2023-05-09T14:03:47.986Z,160946.88
2023-05-09T14:06:17.465Z,161017.97
2023-05-09T14:08:46.173Z,160993.88
2023-05-09T14:11:14.201Z,160976.41
2023-05-09T14:13:42.600Z,160967.00
2023-05-09T14:16:10.765Z,160956.31
2023-05-09T14:18:40.150Z,160944.22
2023-05-09T14:21:08.198Z,160980.47
2023-05-09T14:23:36.575Z,160997.91
2023-05-09T14:26:04.345Z,161020.69
2023-05-09T14:28:32.914Z,161030.03
2023-05-09T14:31:01.922Z,160984.50
2023-05-09T14:33:30.626Z,161030.03
2023-05-09T14:35:58.935Z,161013.97
2023-05-09T14:38:27.750Z,161009.94
2023-05-09T14:40:56.427Z,160977.78
2023-05-09T14:43:24.969Z,160971.09
2023-05-09T14:45:52.794Z,160981.78
2023-05-09T14:48:21.375Z,160977.78
2023-05-09T14:50:50.154Z,160960.28
2023-05-09T14:53:18.799Z,160957.63
2023-05-09T14:55:47.126Z,160964.34
2023-05-09T14:58:16.308Z,160952.25
2023-05-09T15:00:47.961Z,160925.44
2023-05-09T15:03:16.520Z,160909.38
2023-05-09T15:05:45.224Z,160929.50
2023-05-09T15:08:14.577Z,160934.88
2023-05-09T15:10:42.901Z,160936.19
2023-05-09T15:13:11.942Z,160980.47
2023-05-09T15:15:40.981Z,160981.78
2023-05-09T15:18:10.596Z,160952.25
2023-05-09T15:20:38.906Z,160981.78
2023-05-09T15:23:08.105Z,160985.81
2023-05-09T15:25:36.292Z,160948.22
2023-05-09T15:28:05.111Z,160930.81
2023-05-09T15:30:34.862Z,160946.88
2023-05-09T15:33:04.623Z,160968.34
2023-05-09T15:35:32.932Z,160972.41
2023-05-09T15:38:00.814Z,160991.19
2023-05-09T15:40:29.344Z,160988.50
2023-05-09T15:42:58.025Z,160975.09
2023-05-09T15:45:39.265Z,160936.19
2023-05-09T15:48:07.755Z,160926.78
2023-05-09T15:50:35.927Z,160901.34
2023-05-09T15:53:06.409Z,160850.44
2023-05-09T15:55:35.051Z,160833.00
2023-05-09T15:58:03.376Z,160838.38
2023-05-09T16:00:31.428Z,160834.34
2023-05-09T16:03:00.053Z,160838.38
2023-05-09T16:05:27.975Z,160831.69
2023-05-09T16:07:56.482Z,160820.94
2023-05-09T16:10:24.252Z,160822.31
2023-05-09T16:12:53.050Z,160815.63
2023-05-09T16:15:21.505Z,160799.50
2023-05-09T16:17:49.506Z,160794.19
2023-05-09T16:20:17.485Z,160768.72
2023-05-09T16:22:45.883Z,160764.72
2023-05-09T16:25:14.489Z,160754.00
2023-05-09T16:27:45.999Z,160790.16
2023-05-09T16:30:14.996Z,160784.78
2023-05-09T16:32:43.419Z,160763.34
2023-05-09T16:35:11.302Z,160741.94
2023-05-09T16:37:40.050Z,160741.94
2023-05-09T16:40:08.668Z,160751.34
2023-05-09T16:42:37.472Z,160745.97
2023-05-09T16:45:06.855Z,160744.63
2023-05-09T16:47:35.515Z,160723.22
2023-05-09T16:50:05.363Z,160721.81
2023-05-09T16:52:33.857Z,160713.81
2023-05-09T16:55:01.841Z,160689.72
2023-05-09T16:57:30.361Z,160653.50
2023-05-09T16:59:58.789Z,160648.16
2023-05-09T17:02:26.905Z,160634.75
2023-05-09T17:04:55.320Z,160625.41
2023-05-09T17:07:23.940Z,160612.00
2023-05-09T17:09:51.817Z,160591.91
2023-05-09T17:12:20.763Z,160601.28
2023-05-09T17:14:48.843Z,160571.81
2023-05-09T17:17:17.852Z,160574.53
2023-05-09T17:19:45.947Z,160563.78
2023-05-09T17:22:14.036Z,160545.03
2023-05-09T17:24:42.035Z,160553.13
2023-05-09T17:27:11.701Z,160534.34
2023-05-09T17:29:39.649Z,160530.31
2023-05-09T17:32:08.026Z,160500.88
2023-05-09T17:34:36.510Z,160474.09
2023-05-09T17:37:06.248Z,160466.06
2023-05-09T17:39:34.801Z,160439.34
2023-05-09T17:42:02.832Z,160427.28
2023-05-09T17:44:31.318Z,160415.22
2023-05-09T17:47:01.727Z,160391.16
2023-05-09T17:49:30.266Z,160388.44
2023-05-09T17:51:58.284Z,160367.00
2023-05-09T17:54:26.752Z,160349.63
2023-05-09T17:56:59.417Z,160333.59
2023-05-09T17:59:28.988Z,160317.50
2023-05-09T18:01:57.254Z,160298.78
2023-05-09T18:04:26.207Z,160264.00
2023-05-09T18:06:54.698Z,160256.00
2023-05-09T18:09:24.432Z,160239.91
2023-05-09T18:11:53.080Z,160205.13
2023-05-09T18:14:22.314Z,160183.72
2023-05-09T18:16:51.757Z,160151.66
2023-05-09T18:19:20.375Z,160124.88
2023-05-09T18:21:48.767Z,160119.53
2023-05-09T18:24:17.186Z,160087.47
2023-05-09T18:26:44.932Z,160066.06
2023-05-09T18:29:14.389Z,160025.88
2023-05-09T18:31:43.270Z,160013.84
2023-05-09T18:34:12.411Z,159993.78
2023-05-09T18:36:40.230Z,159984.44
2023-05-09T18:39:09.317Z,159964.38
2023-05-09T18:41:37.580Z,159956.38
2023-05-09T18:44:06.188Z,159940.34
2023-05-09T18:46:34.144Z,159918.97
2023-05-09T18:49:05.860Z,159918.97
2023-05-09T18:51:34.302Z,159893.53
2023-05-09T18:54:03.048Z,159866.81
2023-05-09T18:56:31.049Z,159849.47
2023-05-09T18:58:59.363Z,159845.44
2023-05-09T19:01:27.106Z,159822.72
2023-05-09T19:03:56.380Z,159787.97
2023-05-09T19:06:27.513Z,159785.31
2023-05-09T19:08:55.899Z,159767.94
2023-05-09T19:11:24.366Z,159747.94
2023-05-09T19:13:53.676Z,159705.13
2023-05-09T19:16:23.380Z,159691.81
2023-05-09T19:18:54.546Z,159685.13
2023-05-09T19:21:23.445Z,159654.34
2023-05-09T19:23:52.801Z,159614.28
2023-05-09T19:26:23.593Z,159622.31
2023-05-09T19:29:00.093Z,159595.59
2023-05-09T19:31:32.948Z,159568.88
2023-05-09T19:34:04.570Z,159546.19
2023-05-09T19:36:33.977Z,159523.50
2023-05-09T19:39:02.753Z,159506.09
2023-05-09T19:41:30.677Z,159500.81
2023-05-09T19:43:59.836Z,159478.06
2023-05-09T19:46:28.707Z,159475.41
2023-05-09T19:48:58.589Z,159464.72
2023-05-09T19:51:28.620Z,159442.03
2023-05-09T19:53:57.822Z,159400.63
2023-05-09T19:56:26.265Z,159371.28
2023-05-09T19:58:55.683Z,159336.56
2023-05-09T20:01:23.764Z,159304.56
2023-05-09T20:03:53.680Z,159268.50
2023-05-09T20:06:36.052Z,159260.44
2023-05-09T20:09:05.281Z,159244.44
2023-05-09T20:11:33.285Z,159217.75
2023-05-09T20:14:02.013Z,159193.75
2023-05-09T20:16:30.022Z,159187.09
2023-05-09T20:18:59.620Z,159164.44
2023-05-09T20:21:28.189Z,159151.06
2023-05-09T20:23:57.065Z,159124.38
2023-05-09T20:26:26.484Z,159104.38
2023-05-09T20:29:01.741Z,159088.38
2023-05-09T20:31:29.684Z,159067.03
2023-05-09T20:33:58.636Z,159052.38
2023-05-09T20:36:28.311Z,159049.69
2023-05-09T20:38:57.664Z,159031.06
2023-05-09T20:41:26.197Z,159020.34
2023-05-09T20:43:54.808Z,158997.69
2023-05-09T20:46:25.132Z,158987.06
2023-05-09T20:48:54.831Z,158979.00
2023-05-09T20:51:23.368Z,158971.03
2023-05-09T20:53:51.749Z,158959.06
2023-05-09T20:56:20.259Z,158905.72
2023-05-09T20:58:49.018Z,158920.38
2023-05-09T21:01:17.496Z,158901.69
2023-05-09T21:03:45.942Z,158880.38
2023-05-09T21:06:13.910Z,158855.06
2023-05-09T21:08:43.037Z,158832.41
2023-05-09T21:11:11.455Z,158812.41
2023-05-09T21:13:40.044Z,158793.75
2023-05-09T21:16:08.813Z,158771.06
2023-05-09T21:18:36.813Z,158743.06
2023-05-09T21:21:08.530Z,158721.75
2023-05-09T21:23:36.910Z,158707.09
2023-05-09T21:26:05.653Z,158687.09
2023-05-09T21:28:34.846Z,158680.44
2023-05-09T21:31:02.700Z,158660.44
2023-05-09T21:33:31.351Z,158648.44
2023-05-09T21:35:59.930Z,158656.50
2023-05-09T21:38:28.145Z,158635.19
2023-05-09T21:40:56.118Z,158587.22
2023-05-09T21:43:24.184Z,158575.22
2023-05-09T21:45:52.506Z,158567.22
2023-05-09T21:48:20.900Z,158560.56
2023-05-09T21:50:48.830Z,158549.88
2023-05-09T21:53:17.570Z,158547.25
2023-05-09T21:55:45.743Z,158527.25
2023-05-09T21:58:14.001Z,158504.63
2023-05-09T22:00:41.665Z,158491.31
2023-05-09T22:03:09.862Z,158476.66
2023-05-09T22:05:37.379Z,158475.34
2023-05-09T22:08:05.840Z,158463.34
2023-05-09T22:10:34.331Z,158430.03
2023-05-09T22:13:02.235Z,158408.75
2023-05-09T22:15:29.836Z,158391.47
2023-05-09T22:17:58.254Z,158382.16
2023-05-09T22:20:26.820Z,158358.19
2023-05-09T22:22:54.660Z,158351.50
2023-05-09T22:25:22.691Z,158355.53
2023-05-09T22:27:51.213Z,158359.50
2023-05-09T22:30:19.136Z,158347.56
2023-05-09T22:32:47.272Z,158320.91
2023-05-09T22:35:14.840Z,158315.59
2023-05-09T22:37:43.449Z,158288.97
2023-05-09T22:40:12.202Z,158257.06
2023-05-09T22:42:40.108Z,158243.75
2023-05-09T22:45:19.509Z,158239.72
2023-05-09T22:47:48.096Z,158221.13
2023-05-09T22:50:15.964Z,158202.47
2023-05-09T22:52:44.126Z,158195.84
2023-05-09T22:55:12.214Z,158181.19
2023-05-09T22:57:41.696Z,158177.19
2023-05-09T23:00:09.788Z,158177.19
2023-05-09T23:02:37.672Z,158173.22
2023-05-09T23:05:06.640Z,158173.22
2023-05-09T23:07:35.242Z,158186.53
2023-05-09T23:10:02.939Z,158194.50
2023-05-09T23:12:30.950Z,158201.16
2023-05-09T23:14:58.517Z,158202.47
2023-05-09T23:17:26.465Z,158202.47
2023-05-09T23:19:54.040Z,158185.22
2023-05-09T23:22:21.985Z,158179.88
2023-05-09T23:24:49.672Z,158179.88
2023-05-09T23:27:18.253Z,158158.59
2023-05-09T23:29:46.229Z,158182.53
2023-05-09T23:32:14.379Z,158177.19
2023-05-09T23:34:41.991Z,158174.53
2023-05-09T23:37:10.370Z,158170.53
2023-05-09T23:39:38.086Z,158195.84
2023-05-09T23:42:06.012Z,158203.81
2023-05-09T23:44:33.546Z,158189.19
2023-05-09T23:47:02.300Z,158195.84
2023-05-09T23:49:30.022Z,158199.84
2023-05-09T23:51:57.821Z,158187.84
2023-05-09T23:54:25.485Z,158198.47
2023-05-09T23:56:53.544Z,158194.50
2023-05-09T23:59:21.137Z,158191.81
